Time;durP1;ratioP1;P1;durP2;ratioP2;P2;SDS_P1;SDS_P2;PMS_P1;PMS_P2;Temp;Humidity;BMP_temperature;BMP_pressure;BME280_temperature;BME280_humidity;BME280_pressure;Samples;Min_cycle;Max_cycle;Signal;HPM_P1;HPM_P2
2022/08/19 00:00:14;;;;;;;15.77;9.95;;;;;;;19.02;100.00;93964.16;5060766;28;20032;-91
2022/08/19 00:02:40;;;;;;;37.67;10.50;;;;;;;19.15;100.00;93956.22;5044917;28;20120;-91
2022/08/19 00:05:06;;;;;;;15.57;10.18;;;;;;;19.06;100.00;93946.44;5061302;28;20055;-91
2022/08/19 00:07:32;;;;;;;17.13;10.85;;;;;;;18.84;100.00;93944.97;5060445;28;20034;-91
2022/08/19 00:09:57;;;;;;;201.38;18.23;;;;;;;18.48;100.00;93957.84;5078276;28;20028;-91
2022/08/19 00:12:23;;;;;;;281.92;25.55;;;;;;;18.15;100.00;93973.75;5060397;28;20024;-90
2022/08/19 00:14:48;;;;;;;230.88;20.73;;;;;;;18.12;100.00;93975.16;5060361;28;20093;-91
2022/08/19 00:17:13;;;;;;;183.77;19.60;;;;;;;18.07;100.00;93981.44;5060621;28;20081;-91
2022/08/19 00:19:40;;;;;;;30.73;12.38;;;;;;;18.23;100.00;93967.59;5077769;28;20073;-91
2022/08/19 00:22:06;;;;;;;128.73;17.42;;;;;;;18.54;100.00;93949.69;5044183;28;20398;-90
2022/08/19 00:24:32;;;;;;;33.67;11.85;;;;;;;18.83;100.00;93934.69;5078028;28;20113;-91
2022/08/19 00:26:58;;;;;;;55.22;10.55;;;;;;;18.82;100.00;93935.81;5076895;28;20028;-91
2022/08/19 00:29:24;;;;;;;29.98;12.13;;;;;;;18.75;100.00;93926.50;5077125;28;20051;-91
2022/08/19 00:31:54;;;;;;;19.20;11.15;;;;;;;18.44;100.00;93932.31;5077373;28;20302;-91
2022/08/19 00:34:20;;;;;;;16.73;10.82;;;;;;;18.57;100.00;93917.94;5076953;28;20025;-91
2022/08/19 00:36:46;;;;;;;18.00;11.63;;;;;;;18.47;100.00;93921.03;5077071;28;20496;-91
2022/08/19 00:39:13;;;;;;;27.33;11.43;;;;;;;18.36;100.00;93942.66;5043614;28;20071;-90
2022/08/19 00:41:39;;;;;;;22.38;11.35;;;;;;;18.59;100.00;93937.00;5060116;28;20341;-91
2022/08/19 00:44:04;;;;;;;17.48;10.48;;;;;;;18.67;100.00;93937.22;5060325;28;20028;-91
2022/08/19 00:46:32;;;;;;;14.73;10.38;;;;;;;18.56;100.00;93942.16;5076682;28;20496;-90
2022/08/19 00:48:59;;;;;;;17.67;11.13;;;;;;;18.62;100.00;93946.94;5060193;28;20082;-91
2022/08/19 00:51:27;;;;;;;23.33;11.02;;;;;;;18.45;100.00;93949.78;5076559;28;20025;-91
2022/08/19 00:53:55;;;;;;;19.48;11.18;;;;;;;18.64;100.00;93950.03;5060289;28;20028;-91
2022/08/19 00:56:21;;;;;;;18.65;11.73;;;;;;;18.64;100.00;93955.34;5076432;28;20054;-91
2022/08/19 00:58:47;;;;;;;23.35;12.65;;;;;;;18.29;100.00;93957.56;5060054;28;20430;-91
2022/08/19 01:01:13;;;;;;;25.73;14.48;;;;;;;17.91;100.00;93978.56;5076109;28;20032;-92
2022/08/19 01:03:39;;;;;;;31.90;14.43;;;;;;;17.66;100.00;93965.19;5059931;28;20028;-92
2022/08/19 01:06:05;;;;;;;21.63;14.20;;;;;;;17.71;100.00;93972.16;5059863;28;20078;-92
2022/08/19 01:08:30;;;;;;;23.80;13.27;;;;;;;18.20;100.00;93965.59;5076540;28;20066;-91
2022/08/19 01:10:57;;;;;;;28.75;15.23;;;;;;;18.02;100.00;93959.63;5059630;28;20067;-91
2022/08/19 01:13:27;;;;;;;24.38;14.77;;;;;;;17.85;100.00;93958.66;5059760;28;20040;-92
2022/08/19 01:15:56;;;;;;;26.73;15.27;;;;;;;17.83;100.00;93962.72;5059796;28;20031;-92
2022/08/19 01:18:23;;;;;;;27.73;15.15;;;;;;;17.97;100.00;93960.59;5076193;28;20024;-92
2022/08/19 01:20:50;;;;;;;22.52;13.93;;;;;;;18.37;100.00;93938.16;5076398;28;20035;-91
2022/08/19 01:23:17;;;;;;;27.40;14.52;;;;;;;18.34;100.00;93930.81;5075911;28;20023;-91
2022/08/19 01:25:51;;;;;;;20.45;13.35;;;;;;;18.33;100.00;93930.06;5059749;28;20032;-92
2022/08/19 01:28:27;;;;;;;21.88;12.60;;;;;;;18.57;100.00;93933.09;5059629;28;20024;-92
2022/08/19 01:30:54;;;;;;;19.20;13.50;;;;;;;18.54;100.00;93928.47;5060025;28;20082;-92
2022/08/19 01:33:20;;;;;;;18.63;12.35;;;;;;;18.72;100.00;93929.81;5076201;28;20100;-91
2022/08/19 01:35:50;;;;;;;16.40;10.85;;;;;;;18.83;100.00;93919.53;5076039;28;20036;-92
2022/08/19 01:38:22;;;;;;;21.42;11.60;;;;;;;18.73;100.00;93912.78;5059551;28;20024;-92
2022/08/19 01:40:47;;;;;;;24.27;14.25;;;;;;;18.75;100.00;93917.78;5076214;28;20024;-91
2022/08/19 01:43:13;;;;;;;30.30;14.30;;;;;;;18.42;100.00;93922.03;5075821;28;20028;-91
2022/08/19 01:45:39;;;;;;;28.20;14.27;;;;;;;18.39;100.00;93917.38;5059348;28;20462;-91
2022/08/19 01:48:08;;;;;;;26.65;15.02;;;;;;;18.55;100.00;93932.66;5059975;28;20032;-91
2022/08/19 01:50:35;;;;;;;21.25;13.88;;;;;;;18.50;100.00;93925.69;5075706;28;20024;-91
2022/08/19 01:53:03;;;;;;;18.60;12.23;;;;;;;18.61;100.00;93923.38;5059220;28;20449;-92
2022/08/19 01:55:29;;;;;;;16.35;10.25;;;;;;;18.63;100.00;93915.84;5053678;28;20036;-92
2022/08/19 01:57:58;;;;;;;20.55;13.38;;;;;;;18.89;100.00;93901.53;5048570;28;20032;-93
2022/08/19 02:00:26;;;;;;;22.58;13.82;;;;;;;18.89;100.00;93897.00;5050884;28;20096;-93
2022/08/19 02:02:51;;;;;;;23.85;14.45;;;;;;;18.98;100.00;93890.78;5056634;28;20329;-92
2022/08/19 02:05:22;;;;;;;22.10;13.52;;;;;;;18.82;100.00;93877.44;5055535;28;20119;-92
2022/08/19 02:07:49;;;;;;;39.40;16.38;;;;;;;18.26;100.00;93887.38;5060048;28;20075;-93
2022/08/19 02:10:18;;;;;;;26.38;15.63;;;;;;;18.59;100.00;93883.16;5042769;28;20025;-93
2022/08/19 02:12:44;;;;;;;24.73;16.02;;;;;;;18.76;100.00;93879.53;5047130;28;20385;-93
2022/08/19 02:15:13;;;;;;;20.65;13.80;;;;;;;18.72;100.00;93876.75;5048370;28;20078;-86
2022/08/19 02:17:39;;;;;;;28.33;14.85;;;;;;;18.49;100.00;93885.09;5042272;28;20275;-85
2022/08/19 02:20:06;;;;;;;81.80;19.95;;;;;;;18.21;100.00;93896.31;5042454;28;20052;-85
2022/08/19 02:22:32;;;;;;;39.45;11.82;;;;;;;18.29;100.00;93909.81;5042311;28;20032;-85
2022/08/19 02:24:57;;;;;;;64.45;17.52;;;;;;;18.38;100.00;93902.56;5042534;28;20029;-85
2022/08/19 02:27:23;;;;;;;30.33;15.25;;;;;;;18.50;100.00;93899.91;5058544;28;20099;-85
2022/08/19 02:29:50;;;;;;;31.98;18.95;;;;;;;18.30;100.00;93896.25;5042489;28;20025;-85
2022/08/19 02:32:16;;;;;;;33.45;17.73;;;;;;;18.15;100.00;93904.81;5041922;28;20021;-85
2022/08/19 02:34:42;;;;;;;31.27;18.48;;;;;;;18.01;100.00;93910.38;5058476;28;20028;-85
2022/08/19 02:38:25;;;;;;;35.40;19.70;;;;;;;17.89;100.00;93919.81;5041896;28;20040;-85
2022/08/19 02:39:56;;;;;;;33.83;19.30;;;;;;;17.79;100.00;93923.63;5058365;28;20024;-85
2022/08/19 02:42:21;;;;;;;33.58;19.15;;;;;;;17.99;100.00;93923.16;5058204;28;20020;-85
2022/08/19 02:44:47;;;;;;;36.45;19.95;;;;;;;17.81;100.00;93912.72;5041921;28;20061;-85
2022/08/19 02:47:14;;;;;;;44.75;21.05;;;;;;;17.79;100.00;93912.28;5058576;28;20085;-85
2022/08/19 02:49:40;;;;;;;30.05;16.17;;;;;;;17.97;100.00;93902.28;5042289;28;20334;-85
2022/08/19 02:52:07;;;;;;;26.48;12.00;;;;;;;18.18;100.00;93896.22;5049278;28;20048;-85
2022/08/19 02:54:32;;;;;;;17.42;11.05;;;;;;;18.25;100.00;93895.69;5078426;28;20086;-85
2022/08/19 02:56:58;;;;;;;15.07;9.52;;;;;;;18.00;100.00;93892.91;5078139;28;20029;-85
2022/08/19 02:59:24;;;;;;;9.48;5.25;;;;;;;18.09;100.00;93899.72;5079550;28;20115;-85
2022/08/19 03:01:49;;;;;;;8.40;3.78;;;;;;;18.19;100.00;93893.22;5061430;28;20314;-85
2022/08/19 03:04:16;;;;;;;8.68;3.83;;;;;;;18.21;100.00;93884.94;5061179;28;20075;-85
2022/08/19 03:06:44;;;;;;;6.43;4.68;;;;;;;17.88;100.00;93877.75;5079170;28;20025;-85
2022/08/19 03:09:11;;;;;;;9.40;3.05;;;;;;;18.05;100.00;93872.31;5077993;28;20028;-85
2022/08/19 03:11:37;;;;;;;9.13;3.47;;;;;;;17.77;100.00;93874.69;5079197;28;20055;-85
2022/08/19 03:14:05;;;;;;;12.20;4.80;;;;;;;17.57;100.00;93874.41;5060906;28;20040;-85
2022/08/19 03:16:35;;;;;;;8.95;3.83;;;;;;;17.60;100.00;93879.03;5077826;28;20033;-85
2022/08/19 03:19:01;;;;;;;7.45;3.28;;;;;;;17.72;100.00;93869.63;5061269;28;20024;-85
2022/08/19 03:21:29;;;;;;;8.15;2.03;;;;;;;17.59;100.00;93858.97;5060954;28;20056;-85
2022/08/19 03:23:56;;;;;;;5.25;2.50;;;;;;;17.61;100.00;93856.75;5077610;28;20079;-85
2022/08/19 03:26:21;;;;;;;7.63;2.80;;;;;;;17.44;100.00;93873.56;5060826;28;20507;-85
2022/08/19 03:28:49;;;;;;;7.50;2.15;;;;;;;17.55;100.00;93873.94;5061065;28;20024;-85
2022/08/19 03:31:17;;;;;;;6.65;2.30;;;;;;;17.49;100.00;93880.53;5061150;28;20031;-85
2022/08/19 03:33:43;;;;;;;6.50;2.17;;;;;;;17.56;100.00;93878.16;5060700;28;20021;-85
2022/08/19 03:36:22;;;;;;;5.57;2.53;;;;;;;17.45;100.00;93883.06;5077483;28;20057;-85
2022/08/19 03:38:51;;;;;;;90.50;6.47;;;;;;;17.14;100.00;93891.34;5060970;28;20064;-86
2022/08/19 03:41:21;;;;;;;4.13;1.90;;;;;;;17.18;100.00;93886.97;5060568;28;20028;-85
2022/08/19 03:43:48;;;;;;;8.07;2.53;;;;;;;17.07;100.00;93891.84;5060539;28;20029;-85
2022/08/19 03:46:16;;;;;;;5.40;2.13;;;;;;;16.88;100.00;93902.81;5077496;28;20516;-85
2022/08/19 04:43:15;;;;;;;4.10;1.10;;;;;;;14.57;100.00;93947.88;5114871;27;20372;-89
2022/08/19 04:45:43;;;;;;;4.82;0.82;;;;;;;14.58;100.00;93941.53;5113106;28;20459;-89
2022/08/19 04:48:09;;;;;;;4.47;0.52;;;;;;;14.64;100.00;93952.72;5113440;28;20114;-89
2022/08/19 04:50:35;;;;;;;2.30;0.93;;;;;;;14.95;100.00;93968.53;5097005;28;20110;-89
2022/08/19 04:53:01;;;;;;;4.40;1.20;;;;;;;14.89;100.00;93975.06;5114420;28;20034;-88
2022/08/19 04:55:26;;;;;;;2.28;0.80;;;;;;;14.78;100.00;93965.84;5114733;28;20046;-88
2022/08/19 04:57:52;;;;;;;1.85;1.05;;;;;;;15.01;100.00;93960.50;5114451;28;20028;-88
2022/08/19 05:00:17;;;;;;;4.72;1.00;;;;;;;15.21;100.00;93961.81;5114443;28;20032;-89
2022/08/19 05:02:43;;;;;;;1.20;0.70;;;;;;;15.12;100.00;93962.56;5114279;28;20028;-89
2022/08/19 05:05:09;;;;;;;1.23;0.95;;;;;;;15.15;100.00;93969.09;5114345;28;20028;-89
2022/08/19 05:07:35;;;;;;;3.08;0.70;;;;;;;15.20;100.00;93962.88;5113387;28;20345;-89
2022/08/19 05:10:01;;;;;;;7.40;0.77;;;;;;;14.89;100.00;93947.88;5096006;28;20039;-88
2022/08/19 05:12:28;;;;;;;5.32;0.95;;;;;;;15.16;100.00;93938.19;5112810;28;20429;-88
2022/08/19 05:14:54;;;;;;;1.70;0.52;;;;;;;15.33;100.00;93919.00;5112670;28;20446;-87
2022/08/19 05:17:19;;;;;;;1.85;0.80;;;;;;;15.42;100.00;93898.66;5112819;28;20031;-87
2022/08/19 05:22:32;;;;;;;3.13;0.77;;;;;;;15.24;100.00;93895.22;5112931;28;20054;-88
2022/08/19 05:24:58;;;;;;;6.18;0.80;;;;;;;15.18;100.00;93905.16;5113044;28;20039;-88
2022/08/19 05:27:23;;;;;;;2.90;1.00;;;;;;;15.01;100.00;93895.31;5113432;28;20357;-87
2022/08/19 05:29:49;;;;;;;3.42;0.85;;;;;;;15.00;100.00;93920.16;5112092;28;20027;-88
2022/08/19 05:32:14;;;;;;;6.22;0.95;;;;;;;15.07;100.00;93935.53;5112291;28;20047;-88
2022/08/19 05:34:40;;;;;;;5.78;1.40;;;;;;;15.15;100.00;93947.19;5112805;28;20123;-87
2022/08/19 05:37:07;;;;;;;3.25;0.93;;;;;;;15.17;100.00;93966.13;5114004;28;20031;-88
2022/08/19 05:39:34;;;;;;;4.57;1.20;;;;;;;15.02;100.00;93962.06;5095849;28;20068;-88
2022/08/19 05:42:06;;;;;;;5.50;1.20;;;;;;;15.25;100.00;93957.47;5111802;28;20063;-88
2022/08/19 05:44:35;;;;;;;4.68;0.93;;;;;;;14.97;100.00;93945.28;5098733;28;20047;-88
2022/08/19 05:47:02;;;;;;;1.17;0.70;;;;;;;15.09;100.00;93939.44;5098685;28;20059;-88
2022/08/19 05:49:28;;;;;;;1.50;0.73;;;;;;;15.25;100.00;93936.38;5077666;28;20044;-88
2022/08/19 05:51:55;;;;;;;1.92;0.82;;;;;;;15.35;100.00;93940.56;5077854;28;20078;-88
2022/08/19 05:54:22;;;;;;;6.45;0.95;;;;;;;15.36;100.00;93948.19;5078358;28;20044;-88
2022/08/19 05:56:49;;;;;;;4.50;0.98;;;;;;;15.41;100.00;93948.03;5062018;28;20032;-87
2022/08/19 05:59:15;;;;;;;0.85;0.65;;;;;;;15.52;100.00;93951.16;5078474;28;20090;-88
2022/08/19 06:01:45;;;;;;;3.13;0.80;;;;;;;15.80;100.00;93947.47;5078111;28;20051;-88
2022/08/19 06:04:13;;;;;;;2.22;0.82;;;;;;;15.76;100.00;93942.03;5079311;28;20341;-88
2022/08/19 06:06:38;;;;;;;4.03;0.85;;;;;;;15.88;100.00;93930.06;5078118;28;20456;-89
2022/08/19 06:09:05;;;;;;;1.13;0.60;;;;;;;15.75;100.00;93950.25;5078312;28;20036;-90
2022/08/19 06:11:34;;;;;;;1.88;0.60;;;;;;;15.92;100.00;93955.59;5077612;28;20028;-89
2022/08/19 06:14:04;;;;;;;1.73;0.88;;;;;;;16.07;100.00;93956.97;5061121;28;20040;-90
2022/08/19 06:16:33;;;;;;;5.07;1.45;;;;;;;16.10;100.00;93966.16;5077644;28;20119;-89
2022/08/19 06:19:01;;;;;;;2.33;1.00;;;;;;;16.33;100.00;93976.53;5079029;28;20060;-89
2022/08/19 06:21:28;;;;;;;2.90;1.52;;;;;;;16.54;100.00;93979.31;5060940;28;20036;-88
2022/08/19 06:23:55;;;;;;;1.83;0.90;;;;;;;16.61;100.00;93981.47;5077794;28;20106;-89
2022/08/19 06:26:20;;;;;;;4.35;1.38;;;;;;;16.88;100.00;93976.88;5079123;28;20448;-87
2022/08/19 06:28:47;;;;;;;5.20;1.55;;;;;;;16.78;100.00;93985.94;5078937;28;20036;-89
2022/08/19 06:31:17;;;;;;;1.58;1.20;;;;;;;16.77;100.00;93997.63;5077887;28;20078;-88
2022/08/19 06:33:44;;;;;;;7.53;1.23;;;;;;;16.70;100.00;94005.25;5077704;28;20028;-89
2022/08/19 06:36:33;;;;;;;3.38;1.20;;;;;;;16.72;100.00;94005.75;5079001;28;20078;-89
2022/08/19 06:39:21;;;;;;;4.38;1.58;;;;;;;16.68;100.00;94024.09;5077849;28;20502;-86
2022/08/19 06:41:48;;;;;;;9.77;1.77;;;;;;;16.78;100.00;94023.75;5078421;28;20409;-88
2022/08/19 06:44:14;;;;;;;3.70;1.73;;;;;;;16.95;100.00;94032.75;5078614;28;20063;-88
2022/08/19 06:46:40;;;;;;;5.13;1.75;;;;;;;16.80;100.00;94028.72;5078445;28;20032;-89
2022/08/19 06:49:10;;;;;;;3.65;1.60;;;;;;;16.93;100.00;94027.00;5077336;28;20024;-88
2022/08/19 06:51:35;;;;;;;17.85;3.60;;;;;;;17.00;100.00;94027.31;5078248;28;20025;-88
2022/08/19 06:54:01;;;;;;;2.97;1.50;;;;;;;17.18;100.00;94025.41;5076774;28;20318;-88
2022/08/19 06:56:33;;;;;;;2.20;1.20;;;;;;;17.23;100.00;94017.25;5076733;28;20421;-88
2022/08/19 06:59:00;;;;;;;0.70;0.60;;;;;;;17.16;100.00;94030.22;5077207;28;20032;-88
2022/08/19 07:01:26;;;;;;;3.40;1.45;;;;;;;17.19;100.00;94012.91;5078092;28;20025;-89
2022/08/19 07:03:52;;;;;;;1.73;0.65;;;;;;;17.49;100.00;94015.59;5078194;28;20082;-88
2022/08/19 07:06:19;;;;;;;1.02;0.40;;;;;;;17.95;100.00;94016.59;5078321;28;20040;-89
2022/08/19 07:08:46;;;;;;;2.70;0.40;;;;;;;18.08;100.00;94019.34;5078068;28;20086;-88
2022/08/19 07:11:15;;;;;;;0.57;0.30;;;;;;;18.18;100.00;94024.22;5076553;28;20088;-89
2022/08/19 07:13:44;;;;;;;0.40;0.30;;;;;;;17.61;100.00;94010.38;5076735;28;20066;-89
2022/08/19 07:16:13;;;;;;;0.30;0.30;;;;;;;17.25;100.00;94014.31;5076491;28;20028;-88
2022/08/19 07:18:39;;;;;;;3.75;0.35;;;;;;;16.92;100.00;93991.03;5077899;28;20020;-88
2022/08/19 07:21:11;;;;;;;2.28;0.38;;;;;;;17.51;100.00;94005.47;5076980;28;20029;-89
2022/08/19 07:23:37;;;;;;;1.10;0.45;;;;;;;18.11;100.00;94015.25;5076245;28;20503;-88
2022/08/19 07:26:07;;;;;;;0.95;0.50;;;;;;;17.79;100.00;94024.31;5076882;28;20024;-88
2022/08/19 07:28:33;;;;;;;2.30;0.57;;;;;;;17.90;100.00;94013.34;5076766;28;20035;-88
2022/08/19 07:30:58;;;;;;;1.08;0.30;;;;;;;17.94;100.00;94020.34;5077591;28;20024;-89
2022/08/19 07:33:24;;;;;;;1.00;0.20;;;;;;;18.21;100.00;94023.56;5076247;28;20090;-88
2022/08/19 07:35:49;;;;;;;3.65;0.30;;;;;;;18.33;100.00;94027.41;5076355;28;20437;-88
2022/08/19 07:38:15;;;;;;;3.80;0.47;;;;;;;19.04;100.00;94028.31;5077817;28;20028;-88
2022/08/19 07:40:41;;;;;;;3.55;0.20;;;;;;;19.40;100.00;94028.69;5077440;28;20024;-88
2022/08/19 07:43:06;;;;;;;2.72;0.20;;;;;;;18.82;100.00;94031.34;5076039;28;20051;-88
2022/08/19 07:45:32;;;;;;;0.10;0.10;;;;;;;19.07;100.00;94019.69;5077434;28;20028;-88
2022/08/19 07:47:58;;;;;;;1.75;0.20;;;;;;;19.34;100.00;94028.13;5077417;28;20024;-87
2022/08/19 07:50:24;;;;;;;0.30;0.10;;;;;;;19.27;100.00;94030.56;5076084;28;20336;-87
2022/08/19 07:52:49;;;;;;;0.08;0.08;;;;;;;18.50;100.00;94031.78;5059753;28;20107;-89
2022/08/19 07:55:22;;;;;;;0.13;0.13;;;;;;;17.83;100.00;94034.25;5075827;28;20029;-87
2022/08/19 07:57:47;;;;;;;0.50;0.17;;;;;;;17.59;100.00;94027.72;5059338;28;20078;-89
2022/08/19 08:00:13;;;;;;;0.35;0.20;;;;;;;17.30;100.00;94024.72;5076315;28;20028;-89
2022/08/19 08:02:42;;;;;;;0.20;0.10;;;;;;;17.39;100.00;94022.03;5075812;28;20123;-87
2022/08/19 08:14:19;;;;;;;1.33;0.30;;;;;;;18.53;100.00;94022.41;5076732;28;20066;-87
2022/08/19 08:16:45;;;;;;;0.35;0.15;;;;;;;18.67;100.00;94014.94;5077122;28;20028;-87
2022/08/19 08:19:11;;;;;;;0.35;0.20;;;;;;;18.69;100.00;94009.28;5075579;28;20357;-88
2022/08/19 08:21:37;;;;;;;1.00;0.30;;;;;;;18.86;100.00;94016.31;5075522;28;20028;-88
2022/08/19 08:24:02;;;;;;;0.45;0.25;;;;;;;18.88;100.00;94001.63;5076939;28;20025;-88
2022/08/19 08:26:28;;;;;;;0.30;0.20;;;;;;;19.16;100.00;94006.34;5076903;28;20496;-88
2022/08/19 08:28:53;;;;;;;2.15;0.30;;;;;;;18.67;100.00;94001.69;5075674;28;20363;-88
2022/08/19 08:31:19;;;;;;;1.60;0.30;;;;;;;18.83;100.00;94001.03;5075538;28;20054;-86
2022/08/19 08:33:45;;;;;;;2.88;0.30;;;;;;;18.90;100.00;94012.69;5076533;28;20029;-87
2022/08/19 08:36:13;;;;;;;0.68;0.20;;;;;;;19.26;100.00;94015.75;5076884;28;20031;-88
2022/08/19 08:38:40;;;;;;;0.75;0.20;;;;;;;19.43;100.00;94016.63;5075754;28;20117;-88
2022/08/19 08:41:14;;;;;;;6.22;0.43;;;;;;;19.74;100.00;94016.06;5075367;28;20025;-87
2022/08/19 08:43:43;;;;;;;2.17;0.40;;;;;;;19.75;100.00;94019.50;5076669;28;20036;-87
2022/08/19 08:46:25;;;;;;;2.20;0.28;;;;;;;19.74;100.00;94018.72;5076742;28;20425;-87
2022/08/19 08:49:04;;;;;;;0.30;0.20;;;;;;;19.49;100.00;94008.09;5076424;28;20417;-88
2022/08/19 08:51:42;;;;;;;0.73;0.32;;;;;;;20.15;100.00;94018.78;5075315;28;20046;-87
2022/08/19 08:54:12;;;;;;;0.13;0.10;;;;;;;19.93;100.00;94012.09;5075514;28;20028;-87
2022/08/19 08:56:39;;;;;;;6.53;0.30;;;;;;;19.76;100.00;94013.06;5076764;28;20037;-88
2022/08/19 08:59:09;;;;;;;0.30;0.20;;;;;;;19.71;100.00;94005.31;5075748;28;20453;-87
2022/08/19 09:01:35;;;;;;;0.30;0.10;;;;;;;19.92;100.00;94005.97;5075671;28;20025;-86
2022/08/19 09:04:04;;;;;;;2.97;0.17;;;;;;;20.43;100.00;94010.06;5075038;28;20020;-87
2022/08/19 09:06:45;;;;;;;1.00;0.20;;;;;;;19.80;100.00;94011.31;5075257;28;20021;-87
2022/08/19 09:09:30;;;;;;;1.65;0.25;;;;;;;19.66;100.00;94016.97;5076184;28;20024;-91
2022/08/19 09:12:05;;;;;;;0.10;0.10;;;;;;;19.67;100.00;94013.19;5074915;28;20028;-87
2022/08/19 09:14:49;;;;;;;0.30;0.30;;;;;;;19.81;100.00;94007.53;5076171;28;20028;-86
2022/08/19 09:17:15;;;;;;;3.95;0.30;;;;;;;19.96;100.00;94018.63;5058251;28;20031;-88
2022/08/19 09:19:49;;;;;;;0.28;0.20;;;;;;;19.77;100.00;94006.63;5078909;28;20341;-87
2022/08/19 09:22:15;;;;;;;0.50;0.20;;;;;;;20.08;100.00;94015.16;5079695;28;20032;-88
2022/08/19 09:24:41;;;;;;;0.98;0.20;;;;;;;20.16;100.00;94023.00;5078915;28;20457;-88
2022/08/19 09:27:06;;;;;;;0.75;0.20;;;;;;;19.86;100.00;94023.25;5078896;28;20039;-86
2022/08/19 09:29:31;;;;;;;0.20;0.20;;;;;;;20.61;100.00;94031.84;5079802;28;20032;-87
2022/08/19 09:31:57;;;;;;;0.98;0.30;;;;;;;20.87;100.00;94027.19;5078573;28;20024;-88
2022/08/19 09:34:22;;;;;;;2.83;0.60;;;;;;;20.82;100.00;94038.09;5079913;28;20341;-88
2022/08/19 09:36:52;;;;;;;1.85;0.32;;;;;;;20.71;100.00;94045.75;5078969;28;20036;-88
2022/08/19 09:39:18;;;;;;;0.10;0.10;;;;;;;20.84;100.00;94049.19;5063025;28;20417;-87
2022/08/19 09:41:43;;;;;;;0.52;0.30;;;;;;;21.56;100.00;94055.50;5078794;28;20032;-88
2022/08/19 09:44:11;;;;;;;1.55;0.10;;;;;;;21.47;100.00;94059.13;5079766;28;20020;-88
2022/08/19 09:46:36;;;;;;;4.57;0.28;;;;;;;21.36;100.00;94047.44;5079653;28;20461;-88
2022/08/19 09:49:01;;;;;;;2.28;0.50;;;;;;;20.34;100.00;94055.44;5078494;28;20074;-88
2022/08/19 09:51:28;;;;;;;0.60;0.30;;;;;;;20.23;100.00;94041.03;5079741;28;20418;-88
2022/08/19 09:53:55;;;;;;;0.32;0.20;;;;;;;20.36;100.00;94055.06;5061789;28;20029;-91
2022/08/19 09:56:21;;;;;;;2.28;0.10;;;;;;;20.43;100.00;94052.63;5078048;28;20028;-90
2022/08/19 09:58:47;;;;;;;0.88;0.28;;;;;;;20.13;100.00;94036.97;5078030;28;20032;-90
2022/08/19 10:01:22;;;;;;;0.68;0.30;;;;;;;20.17;100.00;94035.19;5061628;28;20375;-91
2022/08/19 10:03:54;;;;;;;2.42;0.40;;;;;;;20.13;100.00;94042.28;5077930;28;20099;-90
2022/08/19 10:06:22;;;;;;;0.65;0.32;;;;;;;20.05;100.00;94046.63;5077927;28;20024;-91
2022/08/19 10:08:48;;;;;;;1.40;0.50;;;;;;;20.57;100.00;94056.78;5060886;28;20028;-91
2022/08/19 10:11:15;;;;;;;0.57;0.20;;;;;;;20.30;100.00;94049.25;5061498;28;20024;-87
2022/08/19 10:13:42;;;;;;;0.75;0.30;;;;;;;20.66;100.00;94061.97;5061670;28;20039;-89
2022/08/19 10:16:14;;;;;;;1.50;0.30;;;;;;;20.75;100.00;94060.69;5061275;28;20167;-90
2022/08/19 10:18:42;;;;;;;0.32;0.22;;;;;;;20.74;100.00;94053.84;5078206;28;20118;-88
2022/08/19 10:21:19;;;;;;;0.20;0.20;;;;;;;21.10;100.00;94055.91;5077837;28;20443;-89
2022/08/19 10:23:46;;;;;;;0.60;0.22;;;;;;;21.43;100.00;94050.25;5077897;28;20027;-89
2022/08/19 10:26:15;;;;;;;1.10;0.30;;;;;;;20.94;100.00;94045.22;5061047;28;20032;-90
2022/08/19 10:28:41;;;;;;;1.85;0.17;;;;;;;21.33;100.00;94032.13;5077356;28;20020;-89
2022/08/19 10:31:12;;;;;;;1.83;0.30;;;;;;;20.68;100.00;94039.22;5077489;28;20085;-88
2022/08/19 10:33:40;;;;;;;1.55;0.30;;;;;;;21.17;100.00;94040.09;5081480;28;20027;-88
2022/08/19 10:36:30;;;;;;;1.02;0.30;;;;;;;21.54;100.00;94041.75;5098140;28;20328;-89
2022/08/19 10:38:58;;;;;;;1.10;0.28;;;;;;;22.20;100.00;94039.41;5097856;28;20046;-89
2022/08/19 10:41:26;;;;;;;2.15;0.50;;;;;;;21.67;100.00;94037.88;5097721;28;20023;-89
2022/08/19 10:43:54;;;;;;;0.20;0.20;;;;;;;21.77;100.00;94041.16;5080815;28;20030;-90
2022/08/19 10:46:21;;;;;;;2.58;0.47;;;;;;;22.29;100.00;94037.28;5097388;28;20028;-88
2022/08/19 10:48:47;;;;;;;4.32;0.40;;;;;;;22.72;100.00;94028.59;5097609;28;20061;-90
2022/08/19 10:53:58;;;;;;;2.55;0.43;;;;;;;23.85;100.00;94020.53;5097672;28;20119;-91
2022/08/19 10:59:07;;;;;;;0.38;0.30;;;;;;;22.77;100.00;94022.22;5097310;28;20031;-92
2022/08/19 11:01:34;;;;;;;2.67;0.32;;;;;;;22.27;100.00;94026.22;5096974;28;20028;-92
2022/08/19 11:04:03;;;;;;;1.98;0.43;;;;;;;21.85;100.00;94021.50;5097321;28;20349;-92
2022/08/19 11:06:31;;;;;;;0.75;0.40;;;;;;;21.63;100.00;94033.56;5095659;28;20036;-92
2022/08/19 11:08:56;;;;;;;0.65;0.25;;;;;;;21.71;100.00;94027.31;5097112;28;20466;-93
2022/08/19 11:11:22;;;;;;;1.10;0.40;;;;;;;22.06;100.00;94026.53;5079797;28;20024;-92
2022/08/19 11:13:49;;;;;;;0.90;0.28;;;;;;;22.24;100.00;94024.25;5096830;28;20028;-93
2022/08/19 11:16:23;;;;;;;0.98;0.30;;;;;;;21.92;100.00;94026.22;5097065;28;20436;-92
2022/08/19 11:18:55;;;;;;;0.45;0.10;;;;;;;22.31;100.00;94018.28;5097067;28;20028;-92
2022/08/19 11:21:23;;;;;;;0.43;0.28;;;;;;;22.86;100.00;94025.44;5096445;28;20020;-92
2022/08/19 11:23:56;;;;;;;2.08;0.40;;;;;;;22.59;100.00;94020.00;5097807;28;20028;-92
2022/08/19 11:26:22;;;;;;;;;;;;;;;23.13;100.00;94028.19;5097072;28;20351;-93
2022/08/19 11:28:48;;;;;;;0.52;0.30;;;;;;;22.86;100.00;94020.09;5096547;28;19956;-92
2022/08/19 11:31:18;;;;;;;3.28;0.45;;;;;;;22.93;100.00;94020.22;5096700;28;20425;-92
2022/08/19 11:33:43;;;;;;;0.73;0.50;;;;;;;23.64;100.00;94026.34;5096722;28;20443;-92
2022/08/19 11:36:09;;;;;;;0.30;0.30;;;;;;;22.60;100.00;94024.19;5096445;28;20052;-92
2022/08/19 11:38:36;;;;;;;2.03;0.57;;;;;;;22.61;100.00;94023.06;5097864;28;20128;-92
2022/08/19 11:41:07;;;;;;;0.88;0.38;;;;;;;23.53;100.00;94021.63;5095625;28;20024;-93
2022/08/19 11:43:33;;;;;;;0.17;0.15;;;;;;;22.77;100.00;94023.00;5096213;28;20031;-93
2022/08/19 11:45:58;;;;;;;0.45;0.30;;;;;;;22.67;100.00;94026.25;5097332;28;20341;-92
2022/08/19 11:48:25;;;;;;;3.05;0.30;;;;;;;23.24;100.00;94029.16;5096221;28;20020;-95
2022/08/19 11:50:52;;;;;;;1.20;0.28;;;;;;;23.18;100.00;94025.22;5079540;28;20077;-93
2022/08/19 11:53:19;;;;;;;2.60;0.43;;;;;;;23.02;100.00;94022.66;5096105;28;20020;-92
2022/08/19 11:55:45;;;;;;;1.67;0.40;;;;;;;23.64;100.00;94027.13;5097266;28;20026;-93
2022/08/19 11:58:11;;;;;;;1.60;0.30;;;;;;;22.71;100.00;94019.84;5096105;28;20349;-93
2022/08/19 12:00:38;;;;;;;1.67;0.30;;;;;;;22.83;100.00;94020.81;5096060;28;20051;-93
2022/08/19 12:03:04;;;;;;;1.00;0.30;;;;;;;23.91;100.00;94021.00;5097084;28;20459;-93
2022/08/19 12:05:29;;;;;;;5.70;0.52;;;;;;;22.29;100.00;94018.63;5097152;28;20036;-94
2022/08/19 12:07:55;;;;;;;1.92;0.32;;;;;;;22.46;100.00;94014.00;5097131;28;20437;-92
2022/08/19 12:10:22;;;;;;;3.60;0.60;;;;;;;21.87;100.00;94017.38;5097122;28;20107;-93
2022/08/19 12:12:47;;;;;;;0.98;0.30;;;;;;;22.29;100.00;94023.97;5095983;28;20035;-92
2022/08/19 12:15:14;;;;;;;1.38;0.40;;;;;;;21.35;100.00;94037.09;5097029;28;20028;-93
2022/08/19 12:17:41;;;;;;;1.35;0.30;;;;;;;21.67;100.00;94037.13;5095740;28;20028;-93
2022/08/19 12:20:11;;;;;;;1.00;0.20;;;;;;;21.54;100.00;94031.06;5097093;28;20044;-93
2022/08/19 12:22:37;;;;;;;0.90;0.35;;;;;;;21.88;100.00;94028.84;5076354;28;20040;-92
2022/08/19 12:25:04;;;;;;;2.25;0.38;;;;;;;20.80;100.00;94033.06;5075420;28;20036;-93
2022/08/19 12:27:30;;;;;;;1.50;0.30;;;;;;;20.54;100.00;94030.88;5075492;28;20028;-92
2022/08/19 12:29:55;;;;;;;0.52;0.30;;;;;;;20.54;100.00;94028.97;5076624;28;20032;-93
2022/08/19 12:32:21;;;;;;;2.10;0.43;;;;;;;20.29;100.00;94028.28;5075384;28;20338;-89
2022/08/19 12:34:47;;;;;;;1.33;0.40;;;;;;;20.62;100.00;94030.72;5076857;28;20357;-90